Dewalt, Texas
Current Conditions -  °F | °C
As of 9:53 AM on Monday 22 Dec 2014 (Local Time) from KSGR Reporting Station
Few Clouds Few Clouds  
Wind Chill: 67°   Ceiling: Unl
Heat Index: 67°   Visibility: 10mi
Dew Point: 59°   Wind: 16mph
Humidity: 76%   Direction: 240°WSW
Pressure: 29.76"   Gusts: 23mph
Location:  29.5665°N, 95.6214°W
Report Text: KSGR 221553Z 24014G20KT 10SM FEW030 19/15 A2976 RMK AO2 SLP078 T01940150
Loading
Personal Weather Stations






























Interactive Weather Map New forecast layout! Learn more

10-Day Weather Forecast

Advertisements
Track Severe Weather on mobile